Flight Track Log - Related Links

Times and Time Zones

All times are in EDT time to prevent confusion due to time zone crossing. See the EJA221 flight status page for this flight to view local times or setup timezone preferences in your user account.

Time Position Orientation Groundspeed Altitude Reporting Facility
EDT Latitude Longitude Course Direction KTS MPH feet Rate Location/Type
13:23 41.0333 -73.7000 294° West 199 229 1,600  Level New York TRACON
13:24 41.0500 -73.7500 294° West 205 236 3,500 1,950 Climbing New York TRACON
13:25 41.0667 -73.8333 285° West 260 299 5,500 2,650 Climbing New York TRACON
13:26 41.0333 -73.9000 236° Southwest 253 291 8,800 2,800 Climbing New York TRACON
13:27 40.9833 -73.9833 232° Southwest 287 330 11,100 2,263 Climbing New York TRACON
13:28 40.9500 -74.0833 246° West 331 381 13,100 2,105 Climbing New York TRACON
13:29 40.9000 -74.2000 240° Southwest 349 402 15,100 1,667 Climbing New York TRACON
13:30 40.8833 -74.3333 261° West 363 418 16,600 1,000 Climbing New York TRACON
13:31 40.8833 -74.4667 270° West 373 429 17,100 263 Climbing New York TRACON
13:32 40.9000 -74.6000 279° West 379 436 17,100  Level New York TRACON
13:33 40.9019 -74.7189 271° West 381 438 17,100  Level New York Center
13:34 40.9072 -74.8675 273° West 386 444 17,100 645 Level New York Center
13:35 40.9128 -75.0050 273° West 386 444 18,400 1,289 Climbing New York Center
13:36 40.9164 -75.1317 272° West 386 444 19,700 1,835 Climbing New York Center
13:37 40.8944 -75.2731 258° West 386 444 22,100 2,017 Climbing New York Center
13:38 40.8664 -75.4083 255° West 386 444 23,700 1,664 Climbing New York Center
13:39 40.8317 -75.5486 252° West 391 450 25,400 1,672 Climbing New York Center
13:40 40.7967 -75.6914 252° West 401 461 27,100 1,664 Climbing New York Center
13:41 40.7611 -75.8394 252° West 412 474 28,700 1,613 Climbing New York Center
13:42 40.7253 -75.9931 253° West 423 487 30,300 1,686 Climbing New York Center
13:43 40.6872 -76.1433 252° West 429 494 32,100 1,884 Climbing New York Center
13:44 40.6531 -76.2967 254° West 436 502 34,100 2,150 Climbing New York Center
13:45 40.6169 -76.4442 252° West 429 494 36,400 1,966 Climbing New York Center
13:46 40.5847 -76.5919 254° West 429 494 38,000 1,714 Climbing New York Center
13:47 40.5711 -76.7411 263° West 423 487 39,800 1,008 Climbing New York Center
13:48 40.5989 -76.8939 284° West 422 486 40,000 99 Climbing New York Center
13:49 40.6258 -77.0547 282° West 432 497 40,000  Level New York Center
13:50 40.6508 -77.2103 282° West 437 503 40,000  Level New York Center
13:51 40.6800 -77.3608 284° West 437 503 40,000  Level New York Center
13:53 40.7233 -77.6406 282° West 448 516 40,000  Level Cleveland Center
13:54 40.7483 -77.7983 282° West 448 516 40,000  Level Cleveland Center
13:55 40.7728 -77.9536 282° West 448 516 40,000  Level Cleveland Center
13:56 40.7972 -78.1117 282° West 448 516 40,000  Level Cleveland Center
13:57 40.8214 -78.2700 281° West 448 516 40,000  Level Cleveland Center
13:58 40.8494 -78.4256 283° West 443 510 40,000  Level Cleveland Center
13:59 40.8708 -78.5786 281° West 443 510 40,000  Level Cleveland Center
14:00 40.8964 -78.7317 283° West 437 503 40,000  Level Cleveland Center
14:01 40.9197 -78.8878 281° West 437 503 40,000  Level Cleveland Center
14:02 40.9406 -79.0411 280° West 432 497 40,000  Level Cleveland Center
14:03 40.9636 -79.1944 281° West 432 497 40,000  Level Cleveland Center
14:04 40.9861 -79.3481 281° West 426 490 40,000  Level Cleveland Center
14:05 41.0086 -79.5017 281° West 426 490 40,000  Level Cleveland Center
14:06 41.0306 -79.6528 281° West 426 490 40,000  Level Cleveland Center
14:07 41.0525 -79.8011 281° West 426 490 40,000  Level Cleveland Center
14:08 41.0744 -79.9578 281° West 426 490 40,000  Level Cleveland Center
14:09 41.0961 -80.1092 281° West 426 490 40,000  Level Cleveland Center
14:10 41.1111 -80.2633 277° West 426 490 40,000  Level Cleveland Center
14:11 41.1281 -80.4178 278° West 426 490 40,000  Level Cleveland Center
14:12 41.1408 -80.5719 276° West 426 490 40,000  Level Cleveland Center
14:13 41.1553 -80.7292 277° West 426 490 40,000  Level Cleveland Center
14:14 41.1675 -80.8644 277° West 419 482 40,000  Level Cleveland Center
14:15 41.1794 -81.0108 276° West 419 482 40,000  Level Cleveland Center
14:16 41.1933 -81.1653 277° West 419 482 40,000  Level Cleveland Center
14:17 41.2072 -81.3117 277° West 412 474 40,000  Level Cleveland Center
14:18 41.2228 -81.4664 278° West 418 481 40,000  Level Cleveland Center
14:19 41.2361 -81.6186 277° West 418 481 40,000  Level Cleveland Center
14:20 41.2492 -81.7650 277° West 413 475 40,000  Level Cleveland Center
14:21 41.2622 -81.9144 277° West 413 475 40,000  Level Cleveland Center
14:22 41.2728 -82.0694 275° West 407 468 40,000  Level Cleveland Center
14:23 41.2831 -82.2244 275° West 427 491 40,000  Level Cleveland Center
14:24 41.2956 -82.3794 276° West 427 491 40,000  Level Cleveland Center
14:25 41.3075 -82.5319 276° West 422 486 40,000  Level Cleveland Center
14:26 41.3194 -82.6872 276° West 422 486 40,000  Level Cleveland Center
14:27 41.3311 -82.8397 276° West 422 486 40,000  Level Cleveland Center
14:28 41.3422 -83.0114 275° West 422 486 40,000  Level Cleveland Center
14:29 41.3556 -83.1642 277° West 422 486 40,000  Level Cleveland Center
14:30 41.3628 -83.2972 274° West 422 486 40,000  Level Cleveland Center
14:31 41.3736 -83.4500 275° West 422 486 40,000  Level Cleveland Center
14:32 41.3822 -83.5997 274° West 422 486 40,000  Level Cleveland Center
14:33 41.3928 -83.7497 275° West 417 480 40,000 -250 Level Cleveland Center
14:34 41.4033 -83.8969 276° West 417 480 39,500 -1,300 Descending Cleveland Center
14:35 41.4114 -84.0497 274° West 412 474 37,400 -2,150 Descending Cleveland Center
14:36 41.4233 -84.2028 276° West 412 474 35,200 -2,182 Descending Cleveland Center
14:37 41.4389 -84.4017 276° West 420 483 32,200 -2,152 Descending Chicago Center
14:38 41.4492 -84.5925 274° West 430 495 30,000 -1,065 Descending Chicago Center
14:39 41.4592 -84.7561 275° West 441 507 30,000  Level Chicago Center
14:40 41.4683 -84.9186 274° West 441 507 30,000 -774 Level Chicago Center
14:41 41.4772 -85.0806 274° West 439 505 28,400 -1,645 Descending Chicago Center
14:42 41.4853 -85.2436 274° West 438 504 26,600 -1,790 Descending Chicago Center
14:43 41.4939 -85.4161 274° West 452 520 24,700 -1,645 Descending Chicago Center
14:44 41.5031 -85.5908 274° West 459 528 23,200 -1,984 Descending Chicago Center
14:45 41.5125 -85.7589 274° West 447 514 20,600 -2,758 Descending Chicago Center
14:46 41.5208 -85.9508 273° West 431 496 17,500 -2,661 Descending Chicago Center
14:47 41.5239 -86.1047 272° West 417 480 15,100 -2,323 Descending Chicago Center
14:48 41.5239 -86.2578 270° West 414 476 12,700 -2,323 Descending Chicago Center
14:49 41.5228 -86.4078 269° West 408 470 10,300 -1,306 Descending Chicago Center
14:50 41.5208 -86.5458 269° West 372 428 10,000 -145 Descending Chicago Center
14:51 41.5208 -86.6697 270° West 339 390 10,000  Level Chicago Center
14:53 41.5208 -86.8089 270° West 341 392 10,000 -48 Level Chicago Center
14:54 41.5183 -86.9339 269° West 340 391 9,900 -1,016 Descending Chicago Center
14:55 41.5183 -87.0431 270° West 301 346 7,900 -1,887 Descending Chicago Center
14:56 41.5158 -87.1639 268° West 277 319 6,000 -919 Descending Chicago Center
14:57 41.5150 -87.2653 269° West 276 318 6,000  Level Chicago Center
14:58 41.5208 -87.3653 274° West 273 314 6,000 -242 Level Chicago Center
14:59 41.5289 -87.4658 276° West 275 316 5,500 -774 Descending Chicago Center
15:00 41.5364 -87.5839 275° West 271 312 4,400 -726 Descending Chicago Center
15:01 41.5436 -87.6711 276° West 256 295 4,000 -484 Descending Chicago Center
15:02 41.5683 -87.7414 295° West 236 272 3,400 -484 Descending Chicago Center
15:03 41.6014 -87.8028 306° West 218 251 3,000 -194 Descending Chicago Center
15:04 41.6433 -87.8394 327° Northwest 212 244 3,000 -339 Level Chicago Center
15:05 41.7072 -87.8381 North 200 230 2,300 -677 Descending Chicago Center
15:06 41.7467 -87.8042 33° Northeast 182 209 1,600 -634 Descending Chicago Center
15:07 41.7783 -87.7631 44° Northeast 167 192 1,000 -590 Descending Chicago Center

Login

Don't have an account? Register now (free) for customized features, flight alerts, and more!